sensor_id;sensor_type;location;lat;lon;timestamp;P1;durP1;ratioP1;P2;durP2;ratioP2
22894;SDS011;11614;52.494;6.976;2023-04-22T00:00:57;8.70;;;3.77;;
22894;SDS011;11614;52.494;6.976;2023-04-22T00:03:24;4.50;;;3.03;;
22894;SDS011;11614;52.494;6.976;2023-04-22T00:05:50;4.37;;;3.27;;
22894;SDS011;11614;52.494;6.976;2023-04-22T00:08:16;6.53;;;4.03;;
22894;SDS011;11614;52.494;6.976;2023-04-22T00:10:42;4.97;;;3.30;;
22894;SDS011;11614;52.494;6.976;2023-04-22T00:13:08;6.53;;;4.03;;
22894;SDS011;11614;52.494;6.976;2023-04-22T00:15:34;6.00;;;4.30;;
22894;SDS011;11614;52.494;6.976;2023-04-22T00:18:00;6.20;;;3.77;;
22894;SDS011;11614;52.494;6.976;2023-04-22T00:20:26;5.03;;;3.20;;
22894;SDS011;11614;52.494;6.976;2023-04-22T00:22:51;5.67;;;3.60;;
22894;SDS011;11614;52.494;6.976;2023-04-22T00:25:17;5.30;;;3.37;;
22894;SDS011;11614;52.494;6.976;2023-04-22T00:27:43;4.53;;;3.80;;
22894;SDS011;11614;52.494;6.976;2023-04-22T00:30:10;5.67;;;4.07;;
22894;SDS011;11614;52.494;6.976;2023-04-22T00:32:36;5.13;;;3.43;;
22894;SDS011;11614;52.494;6.976;2023-04-22T00:35:02;4.93;;;3.57;;
22894;SDS011;11614;52.494;6.976;2023-04-22T00:37:28;5.00;;;3.60;;
22894;SDS011;11614;52.494;6.976;2023-04-22T00:39:54;5.70;;;3.40;;
22894;SDS011;11614;52.494;6.976;2023-04-22T00:42:22;4.97;;;3.37;;
22894;SDS011;11614;52.494;6.976;2023-04-22T00:44:48;4.93;;;3.93;;
22894;SDS011;11614;52.494;6.976;2023-04-22T00:47:15;5.03;;;3.43;;
22894;SDS011;11614;52.494;6.976;2023-04-22T00:49:42;5.23;;;3.73;;
22894;SDS011;11614;52.494;6.976;2023-04-22T00:52:08;5.97;;;3.60;;
22894;SDS011;11614;52.494;6.976;2023-04-22T00:54:34;4.53;;;3.87;;
22894;SDS011;11614;52.494;6.976;2023-04-22T00:57:01;6.30;;;4.43;;
22894;SDS011;11614;52.494;6.976;2023-04-22T00:59:28;5.30;;;3.80;;
22894;SDS011;11614;52.494;6.976;2023-04-22T01:01:54;5.73;;;3.70;;
22894;SDS011;11614;52.494;6.976;2023-04-22T01:04:20;7.63;;;4.53;;
22894;SDS011;11614;52.494;6.976;2023-04-22T01:06:46;8.50;;;4.90;;
22894;SDS011;11614;52.494;6.976;2023-04-22T01:09:12;7.80;;;5.47;;
22894;SDS011;11614;52.494;6.976;2023-04-22T01:11:38;7.77;;;5.70;;
22894;SDS011;11614;52.494;6.976;2023-04-22T01:14:04;6.87;;;4.93;;
22894;SDS011;11614;52.494;6.976;2023-04-22T01:16:30;10.10;;;5.90;;
22894;SDS011;11614;52.494;6.976;2023-04-22T01:19:00;6.80;;;5.40;;
22894;SDS011;11614;52.494;6.976;2023-04-22T01:21:26;7.67;;;5.27;;
22894;SDS011;11614;52.494;6.976;2023-04-22T01:23:54;7.13;;;4.70;;
22894;SDS011;11614;52.494;6.976;2023-04-22T01:26:20;6.47;;;4.77;;
22894;SDS011;11614;52.494;6.976;2023-04-22T01:28:46;6.90;;;4.53;;
22894;SDS011;11614;52.494;6.976;2023-04-22T01:31:12;6.07;;;4.40;;
22894;SDS011;11614;52.494;6.976;2023-04-22T01:33:38;6.90;;;4.50;;
22894;SDS011;11614;52.494;6.976;2023-04-22T01:36:04;8.27;;;5.30;;
22894;SDS011;11614;52.494;6.976;2023-04-22T01:38:30;8.37;;;6.07;;
22894;SDS011;11614;52.494;6.976;2023-04-22T01:40:57;11.47;;;5.93;;
22894;SDS011;11614;52.494;6.976;2023-04-22T01:43:23;9.47;;;5.00;;
22894;SDS011;11614;52.494;6.976;2023-04-22T01:45:49;18.93;;;5.80;;
22894;SDS011;11614;52.494;6.976;2023-04-22T01:48:15;12.87;;;5.20;;
22894;SDS011;11614;52.494;6.976;2023-04-22T01:50:41;10.93;;;6.10;;
22894;SDS011;11614;52.494;6.976;2023-04-22T01:53:07;11.27;;;5.90;;
22894;SDS011;11614;52.494;6.976;2023-04-22T01:55:33;8.10;;;5.67;;
22894;SDS011;11614;52.494;6.976;2023-04-22T01:58:02;7.17;;;4.60;;
22894;SDS011;11614;52.494;6.976;2023-04-22T02:00:28;9.13;;;5.93;;
22894;SDS011;11614;52.494;6.976;2023-04-22T02:02:54;7.60;;;5.30;;
22894;SDS011;11614;52.494;6.976;2023-04-22T02:05:20;7.20;;;5.10;;
22894;SDS011;11614;52.494;6.976;2023-04-22T02:07:46;11.23;;;6.93;;
22894;SDS011;11614;52.494;6.976;2023-04-22T02:10:15;9.23;;;6.43;;
22894;SDS011;11614;52.494;6.976;2023-04-22T02:12:41;16.80;;;10.67;;
22894;SDS011;11614;52.494;6.976;2023-04-22T02:15:07;22.83;;;9.10;;
22894;SDS011;11614;52.494;6.976;2023-04-22T02:17:33;16.83;;;6.13;;
22894;SDS011;11614;52.494;6.976;2023-04-22T02:20:00;6.20;;;4.60;;
22894;SDS011;11614;52.494;6.976;2023-04-22T02:22:26;12.90;;;5.03;;
22894;SDS011;11614;52.494;6.976;2023-04-22T02:24:53;10.70;;;5.60;;
22894;SDS011;11614;52.494;6.976;2023-04-22T02:27:19;7.63;;;4.57;;
22894;SDS011;11614;52.494;6.976;2023-04-22T02:29:46;7.43;;;5.33;;
22894;SDS011;11614;52.494;6.976;2023-04-22T02:32:12;7.90;;;5.40;;
22894;SDS011;11614;52.494;6.976;2023-04-22T02:34:41;8.57;;;6.10;;
22894;SDS011;11614;52.494;6.976;2023-04-22T02:37:07;7.77;;;5.90;;
22894;SDS011;11614;52.494;6.976;2023-04-22T02:39:33;9.37;;;6.83;;
22894;SDS011;11614;52.494;6.976;2023-04-22T02:41:59;11.27;;;6.77;;
22894;SDS011;11614;52.494;6.976;2023-04-22T02:44:25;9.23;;;6.23;;
22894;SDS011;11614;52.494;6.976;2023-04-22T02:46:51;10.37;;;6.40;;
22894;SDS011;11614;52.494;6.976;2023-04-22T02:49:17;12.23;;;7.90;;
22894;SDS011;11614;52.494;6.976;2023-04-22T02:51:43;10.93;;;6.83;;
22894;SDS011;11614;52.494;6.976;2023-04-22T02:54:08;12.60;;;7.73;;
22894;SDS011;11614;52.494;6.976;2023-04-22T02:56:34;10.90;;;7.73;;
22894;SDS011;11614;52.494;6.976;2023-04-22T02:59:00;9.83;;;7.13;;
22894;SDS011;11614;52.494;6.976;2023-04-22T03:01:26;8.50;;;6.17;;
22894;SDS011;11614;52.494;6.976;2023-04-22T03:03:52;12.97;;;7.77;;
22894;SDS011;11614;52.494;6.976;2023-04-22T03:06:18;10.20;;;7.00;;
22894;SDS011;11614;52.494;6.976;2023-04-22T03:08:44;11.13;;;6.90;;
22894;SDS011;11614;52.494;6.976;2023-04-22T03:11:10;11.07;;;7.10;;
22894;SDS011;11614;52.494;6.976;2023-04-22T03:13:37;10.23;;;6.13;;
22894;SDS011;11614;52.494;6.976;2023-04-22T03:16:03;7.73;;;5.43;;
22894;SDS011;11614;52.494;6.976;2023-04-22T03:18:30;6.63;;;4.43;;
22894;SDS011;11614;52.494;6.976;2023-04-22T03:20:56;7.67;;;5.40;;
22894;SDS011;11614;52.494;6.976;2023-04-22T03:23:21;8.90;;;5.47;;
22894;SDS011;11614;52.494;6.976;2023-04-22T03:25:47;8.80;;;4.90;;
22894;SDS011;11614;52.494;6.976;2023-04-22T03:28:13;7.07;;;4.67;;
22894;SDS011;11614;52.494;6.976;2023-04-22T03:30:39;5.07;;;3.87;;
22894;SDS011;11614;52.494;6.976;2023-04-22T03:33:05;5.57;;;4.27;;
22894;SDS011;11614;52.494;6.976;2023-04-22T03:35:31;7.50;;;5.33;;
22894;SDS011;11614;52.494;6.976;2023-04-22T03:37:57;6.80;;;5.13;;
22894;SDS011;11614;52.494;6.976;2023-04-22T03:40:23;6.60;;;4.87;;
22894;SDS011;11614;52.494;6.976;2023-04-22T03:42:49;9.13;;;5.77;;
22894;SDS011;11614;52.494;6.976;2023-04-22T03:45:15;7.43;;;5.93;;
22894;SDS011;11614;52.494;6.976;2023-04-22T03:47:40;9.43;;;6.50;;
22894;SDS011;11614;52.494;6.976;2023-04-22T03:50:06;9.73;;;6.73;;
22894;SDS011;11614;52.494;6.976;2023-04-22T03:52:32;11.93;;;7.73;;
22894;SDS011;11614;52.494;6.976;2023-04-22T03:54:58;13.53;;;8.63;;
22894;SDS011;11614;52.494;6.976;2023-04-22T03:57:24;12.80;;;8.10;;
22894;SDS011;11614;52.494;6.976;2023-04-22T03:59:49;11.60;;;7.40;;
22894;SDS011;11614;52.494;6.976;2023-04-22T04:02:15;10.57;;;7.23;;
22894;SDS011;11614;52.494;6.976;2023-04-22T04:04:41;11.97;;;8.10;;
22894;SDS011;11614;52.494;6.976;2023-04-22T04:07:07;11.87;;;8.23;;
22894;SDS011;11614;52.494;6.976;2023-04-22T04:09:33;11.53;;;8.43;;
22894;SDS011;11614;52.494;6.976;2023-04-22T04:11:59;11.07;;;7.70;;
22894;SDS011;11614;52.494;6.976;2023-04-22T04:14:25;10.77;;;7.67;;
22894;SDS011;11614;52.494;6.976;2023-04-22T04:16:51;9.20;;;6.97;;
22894;SDS011;11614;52.494;6.976;2023-04-22T04:19:17;9.63;;;7.23;;
22894;SDS011;11614;52.494;6.976;2023-04-22T04:21:42;9.20;;;7.20;;
22894;SDS011;11614;52.494;6.976;2023-04-22T04:24:09;7.73;;;5.17;;
22894;SDS011;11614;52.494;6.976;2023-04-22T04:26:35;7.80;;;5.77;;
22894;SDS011;11614;52.494;6.976;2023-04-22T04:29:01;8.17;;;6.13;;
22894;SDS011;11614;52.494;6.976;2023-04-22T04:31:30;8.80;;;6.60;;
22894;SDS011;11614;52.494;6.976;2023-04-22T04:33:56;8.63;;;6.43;;
22894;SDS011;11614;52.494;6.976;2023-04-22T04:36:22;10.60;;;6.80;;
22894;SDS011;11614;52.494;6.976;2023-04-22T04:38:53;12.90;;;9.03;;
22894;SDS011;11614;52.494;6.976;2023-04-22T04:41:18;10.57;;;7.30;;
22894;SDS011;11614;52.494;6.976;2023-04-22T04:43:45;9.07;;;7.10;;
22894;SDS011;11614;52.494;6.976;2023-04-22T04:46:11;9.27;;;7.30;;
22894;SDS011;11614;52.494;6.976;2023-04-22T04:48:37;13.10;;;7.83;;
22894;SDS011;11614;52.494;6.976;2023-04-22T04:51:04;13.27;;;8.37;;
22894;SDS011;11614;52.494;6.976;2023-04-22T04:53:30;11.23;;;8.40;;
22894;SDS011;11614;52.494;6.976;2023-04-22T04:55:56;12.03;;;8.27;;
22894;SDS011;11614;52.494;6.976;2023-04-22T04:58:21;11.37;;;8.77;;
22894;SDS011;11614;52.494;6.976;2023-04-22T05:00:47;11.70;;;8.87;;
22894;SDS011;11614;52.494;6.976;2023-04-22T05:03:13;12.63;;;8.90;;
22894;SDS011;11614;52.494;6.976;2023-04-22T05:05:38;13.03;;;8.50;;
22894;SDS011;11614;52.494;6.976;2023-04-22T05:08:04;10.60;;;8.67;;
22894;SDS011;11614;52.494;6.976;2023-04-22T05:10:30;11.17;;;8.00;;
22894;SDS011;11614;52.494;6.976;2023-04-22T05:12:56;12.07;;;7.83;;
22894;SDS011;11614;52.494;6.976;2023-04-22T05:15:22;9.23;;;7.07;;
22894;SDS011;11614;52.494;6.976;2023-04-22T05:17:48;10.00;;;7.03;;
22894;SDS011;11614;52.494;6.976;2023-04-22T05:20:14;8.70;;;6.57;;
22894;SDS011;11614;52.494;6.976;2023-04-22T05:22:40;9.57;;;6.57;;
22894;SDS011;11614;52.494;6.976;2023-04-22T05:25:07;11.27;;;7.00;;
22894;SDS011;11614;52.494;6.976;2023-04-22T05:27:33;11.13;;;7.77;;
22894;SDS011;11614;52.494;6.976;2023-04-22T05:29:59;8.77;;;6.37;;
22894;SDS011;11614;52.494;6.976;2023-04-22T05:32:25;9.10;;;6.30;;
22894;SDS011;11614;52.494;6.976;2023-04-22T05:34:51;8.20;;;6.17;;
22894;SDS011;11614;52.494;6.976;2023-04-22T05:37:17;10.83;;;6.93;;
22894;SDS011;11614;52.494;6.976;2023-04-22T05:39:43;7.50;;;5.73;;
22894;SDS011;11614;52.494;6.976;2023-04-22T05:42:09;8.90;;;6.87;;
22894;SDS011;11614;52.494;6.976;2023-04-22T05:44:35;9.30;;;6.93;;
22894;SDS011;11614;52.494;6.976;2023-04-22T05:47:00;21.30;;;13.00;;
22894;SDS011;11614;52.494;6.976;2023-04-22T05:49:26;13.47;;;8.67;;
22894;SDS011;11614;52.494;6.976;2023-04-22T05:51:52;11.83;;;8.07;;
22894;SDS011;11614;52.494;6.976;2023-04-22T05:54:18;15.17;;;9.47;;
22894;SDS011;11614;52.494;6.976;2023-04-22T05:56:44;12.83;;;9.63;;
22894;SDS011;11614;52.494;6.976;2023-04-22T05:59:10;16.37;;;11.03;;
22894;SDS011;11614;52.494;6.976;2023-04-22T06:01:36;14.90;;;10.57;;
22894;SDS011;11614;52.494;6.976;2023-04-22T06:04:02;15.03;;;10.63;;
22894;SDS011;11614;52.494;6.976;2023-04-22T06:06:33;14.73;;;12.00;;
22894;SDS011;11614;52.494;6.976;2023-04-22T06:09:00;12.17;;;9.40;;
22894;SDS011;11614;52.494;6.976;2023-04-22T06:11:26;14.50;;;9.80;;
22894;SDS011;11614;52.494;6.976;2023-04-22T06:13:52;13.20;;;10.47;;
22894;SDS011;11614;52.494;6.976;2023-04-22T06:16:18;14.83;;;10.27;;
22894;SDS011;11614;52.494;6.976;2023-04-22T06:18:44;14.63;;;10.40;;
22894;SDS011;11614;52.494;6.976;2023-04-22T06:21:10;16.90;;;11.13;;
22894;SDS011;11614;52.494;6.976;2023-04-22T06:23:36;12.57;;;9.47;;
22894;SDS011;11614;52.494;6.976;2023-04-22T06:26:02;14.30;;;10.60;;
22894;SDS011;11614;52.494;6.976;2023-04-22T06:28:28;14.67;;;11.03;;
22894;SDS011;11614;52.494;6.976;2023-04-22T06:30:54;18.13;;;13.33;;
22894;SDS011;11614;52.494;6.976;2023-04-22T06:33:20;18.10;;;13.40;;
22894;SDS011;11614;52.494;6.976;2023-04-22T06:35:46;18.30;;;12.97;;
22894;SDS011;11614;52.494;6.976;2023-04-22T06:38:12;17.20;;;12.40;;
22894;SDS011;11614;52.494;6.976;2023-04-22T06:40:38;16.83;;;11.93;;
22894;SDS011;11614;52.494;6.976;2023-04-22T06:43:04;16.73;;;11.67;;
22894;SDS011;11614;52.494;6.976;2023-04-22T06:45:30;16.00;;;11.63;;
22894;SDS011;11614;52.494;6.976;2023-04-22T06:47:56;17.23;;;12.37;;
22894;SDS011;11614;52.494;6.976;2023-04-22T06:50:22;14.27;;;10.47;;
22894;SDS011;11614;52.494;6.976;2023-04-22T06:52:49;13.43;;;10.30;;
22894;SDS011;11614;52.494;6.976;2023-04-22T06:55:15;16.70;;;12.10;;
22894;SDS011;11614;52.494;6.976;2023-04-22T06:57:41;18.03;;;13.60;;
22894;SDS011;11614;52.494;6.976;2023-04-22T07:00:07;18.23;;;11.93;;
22894;SDS011;11614;52.494;6.976;2023-04-22T07:02:33;17.13;;;12.23;;
22894;SDS011;11614;52.494;6.976;2023-04-22T07:04:59;17.00;;;11.47;;
22894;SDS011;11614;52.494;6.976;2023-04-22T07:07:25;14.13;;;10.93;;
22894;SDS011;11614;52.494;6.976;2023-04-22T07:09:51;15.93;;;11.03;;
22894;SDS011;11614;52.494;6.976;2023-04-22T07:12:17;16.67;;;12.47;;
22894;SDS011;11614;52.494;6.976;2023-04-22T07:14:43;15.13;;;11.13;;
22894;SDS011;11614;52.494;6.976;2023-04-22T07:17:09;16.07;;;10.80;;
22894;SDS011;11614;52.494;6.976;2023-04-22T07:19:35;16.80;;;11.90;;
22894;SDS011;11614;52.494;6.976;2023-04-22T07:22:01;15.70;;;11.60;;
22894;SDS011;11614;52.494;6.976;2023-04-22T07:24:27;14.20;;;10.70;;
22894;SDS011;11614;52.494;6.976;2023-04-22T07:26:53;14.87;;;11.03;;
22894;SDS011;11614;52.494;6.976;2023-04-22T07:29:20;14.63;;;10.93;;
22894;SDS011;11614;52.494;6.976;2023-04-22T07:31:46;15.47;;;10.63;;
22894;SDS011;11614;52.494;6.976;2023-04-22T07:34:12;13.13;;;10.40;;
22894;SDS011;11614;52.494;6.976;2023-04-22T07:36:38;13.33;;;9.83;;
22894;SDS011;11614;52.494;6.976;2023-04-22T07:39:04;14.63;;;9.77;;
22894;SDS011;11614;52.494;6.976;2023-04-22T07:41:31;13.63;;;10.40;;
22894;SDS011;11614;52.494;6.976;2023-04-22T07:43:58;12.67;;;9.87;;
22894;SDS011;11614;52.494;6.976;2023-04-22T07:46:24;13.33;;;9.27;;
22894;SDS011;11614;52.494;6.976;2023-04-22T07:48:50;12.87;;;8.93;;
22894;SDS011;11614;52.494;6.976;2023-04-22T07:51:16;12.93;;;9.20;;
22894;SDS011;11614;52.494;6.976;2023-04-22T07:53:42;11.47;;;8.97;;
22894;SDS011;11614;52.494;6.976;2023-04-22T07:56:08;8.73;;;7.33;;
22894;SDS011;11614;52.494;6.976;2023-04-22T07:58:34;8.67;;;7.00;;
22894;SDS011;11614;52.494;6.976;2023-04-22T08:01:00;10.25;;;8.75;;
22894;SDS011;11614;52.494;6.976;2023-04-22T08:03:26;8.85;;;6.75;;
22894;SDS011;11614;52.494;6.976;2023-04-22T08:05:52;8.05;;;7.22;;
22894;SDS011;11614;52.494;6.976;2023-04-22T08:08:18;7.80;;;7.00;;
22894;SDS011;11614;52.494;6.976;2023-04-22T08:10:44;7.13;;;5.68;;
22894;SDS011;11614;52.494;6.976;2023-04-22T08:13:09;7.88;;;6.13;;
22894;SDS011;11614;52.494;6.976;2023-04-22T08:15:35;7.38;;;6.68;;
22894;SDS011;11614;52.494;6.976;2023-04-22T08:18:01;7.10;;;5.88;;
22894;SDS011;11614;52.494;6.976;2023-04-22T08:20:27;7.85;;;6.63;;
22894;SDS011;11614;52.494;6.976;2023-04-22T08:22:53;7.57;;;6.60;;
22894;SDS011;11614;52.494;6.976;2023-04-22T08:25:24;7.15;;;6.45;;
22894;SDS011;11614;52.494;6.976;2023-04-22T08:27:50;8.20;;;6.57;;
22894;SDS011;11614;52.494;6.976;2023-04-22T08:30:16;7.50;;;6.13;;
22894;SDS011;11614;52.494;6.976;2023-04-22T08:32:42;6.45;;;5.63;;
22894;SDS011;11614;52.494;6.976;2023-04-22T08:35:08;10.48;;;6.30;;
22894;SDS011;11614;52.494;6.976;2023-04-22T08:37:34;7.55;;;6.47;;
22894;SDS011;11614;52.494;6.976;2023-04-22T08:40:00;7.15;;;6.30;;
22894;SDS011;11614;52.494;6.976;2023-04-22T08:42:26;6.90;;;5.72;;
22894;SDS011;11614;52.494;6.976;2023-04-22T08:44:55;6.72;;;5.43;;
22894;SDS011;11614;52.494;6.976;2023-04-22T08:47:21;5.60;;;4.20;;
22894;SDS011;11614;52.494;6.976;2023-04-22T08:49:50;8.13;;;5.93;;
22894;SDS011;11614;52.494;6.976;2023-04-22T08:52:17;6.53;;;5.90;;
22894;SDS011;11614;52.494;6.976;2023-04-22T08:54:44;6.97;;;6.28;;
22894;SDS011;11614;52.494;6.976;2023-04-22T08:57:10;7.30;;;5.45;;
22894;SDS011;11614;52.494;6.976;2023-04-22T08:59:37;6.25;;;5.65;;
22894;SDS011;11614;52.494;6.976;2023-04-22T09:02:03;7.32;;;4.85;;
22894;SDS011;11614;52.494;6.976;2023-04-22T09:04:30;6.63;;;5.18;;
22894;SDS011;11614;52.494;6.976;2023-04-22T09:06:57;6.65;;;5.90;;
22894;SDS011;11614;52.494;6.976;2023-04-22T09:09:23;6.32;;;5.28;;
22894;SDS011;11614;52.494;6.976;2023-04-22T09:11:49;5.45;;;4.90;;
22894;SDS011;11614;52.494;6.976;2023-04-22T09:14:15;5.03;;;4.47;;
22894;SDS011;11614;52.494;6.976;2023-04-22T09:16:45;6.63;;;6.00;;
22894;SDS011;11614;52.494;6.976;2023-04-22T09:19:12;6.15;;;5.55;;
22894;SDS011;11614;52.494;6.976;2023-04-22T09:21:39;5.80;;;5.20;;
22894;SDS011;11614;52.494;6.976;2023-04-22T09:24:06;7.05;;;5.32;;
22894;SDS011;11614;52.494;6.976;2023-04-22T09:26:32;6.47;;;4.00;;
22894;SDS011;11614;52.494;6.976;2023-04-22T09:28:58;5.88;;;5.07;;
22894;SDS011;11614;52.494;6.976;2023-04-22T09:31:28;9.60;;;5.35;;
22894;SDS011;11614;52.494;6.976;2023-04-22T09:33:55;5.43;;;4.45;;
22894;SDS011;11614;52.494;6.976;2023-04-22T09:36:21;6.78;;;5.00;;
22894;SDS011;11614;52.494;6.976;2023-04-22T09:38:54;6.13;;;5.53;;
22894;SDS011;11614;52.494;6.976;2023-04-22T09:41:27;5.10;;;4.60;;
22894;SDS011;11614;52.494;6.976;2023-04-22T09:43:54;6.93;;;6.07;;
22894;SDS011;11614;52.494;6.976;2023-04-22T09:46:22;8.88;;;6.43;;
22894;SDS011;11614;52.494;6.976;2023-04-22T09:48:51;5.40;;;4.80;;
22894;SDS011;11614;52.494;6.976;2023-04-22T09:51:18;6.25;;;5.10;;
22894;SDS011;11614;52.494;6.976;2023-04-22T09:53:44;5.82;;;5.22;;
22894;SDS011;11614;52.494;6.976;2023-04-22T09:56:10;6.18;;;5.45;;
22894;SDS011;11614;52.494;6.976;2023-04-22T09:58:39;7.70;;;5.45;;
22894;SDS011;11614;52.494;6.976;2023-04-22T10:01:07;6.55;;;5.07;;
22894;SDS011;11614;52.494;6.976;2023-04-22T10:03:33;6.65;;;4.00;;
22894;SDS011;11614;52.494;6.976;2023-04-22T10:05:59;9.80;;;6.10;;
22894;SDS011;11614;52.494;6.976;2023-04-22T10:08:25;7.65;;;5.53;;
22894;SDS011;11614;52.494;6.976;2023-04-22T10:10:52;5.53;;;4.57;;
22894;SDS011;11614;52.494;6.976;2023-04-22T10:13:18;4.88;;;4.32;;
22894;SDS011;11614;52.494;6.976;2023-04-22T10:15:47;8.02;;;5.18;;
22894;SDS011;11614;52.494;6.976;2023-04-22T10:18:15;6.38;;;3.72;;
22894;SDS011;11614;52.494;6.976;2023-04-22T10:20:43;5.05;;;4.45;;
22894;SDS011;11614;52.494;6.976;2023-04-22T10:23:14;6.35;;;5.75;;
22894;SDS011;11614;52.494;6.976;2023-04-22T10:25:40;8.18;;;5.53;;
22894;SDS011;11614;52.494;6.976;2023-04-22T10:28:08;6.10;;;5.50;;
22894;SDS011;11614;52.494;6.976;2023-04-22T10:30:37;6.88;;;5.43;;
22894;SDS011;11614;52.494;6.976;2023-04-22T10:38:33;6.38;;;5.78;;
22894;SDS011;11614;52.494;6.976;2023-04-22T10:40:59;7.72;;;5.70;;
22894;SDS011;11614;52.494;6.976;2023-04-22T10:43:43;4.82;;;4.05;;
22894;SDS011;11614;52.494;6.976;2023-04-22T10:46:45;5.32;;;4.80;;
22894;SDS011;11614;52.494;6.976;2023-04-22T10:48:56;5.47;;;4.97;;
22894;SDS011;11614;52.494;6.976;2023-04-22T10:51:36;7.45;;;6.00;;
22894;SDS011;11614;52.494;6.976;2023-04-22T10:54:02;5.10;;;4.57;;
22894;SDS011;11614;52.494;6.976;2023-04-22T10:56:28;6.32;;;5.40;;
22894;SDS011;11614;52.494;6.976;2023-04-22T10:58:55;6.25;;;5.65;;
22894;SDS011;11614;52.494;6.976;2023-04-22T11:01:21;7.75;;;6.68;;
22894;SDS011;11614;52.494;6.976;2023-04-22T11:03:47;5.35;;;4.68;;
22894;SDS011;11614;52.494;6.976;2023-04-22T11:06:16;6.18;;;4.78;;
22894;SDS011;11614;52.494;6.976;2023-04-22T11:08:43;5.95;;;4.93;;
22894;SDS011;11614;52.494;6.976;2023-04-22T11:11:09;6.97;;;5.45;;
22894;SDS011;11614;52.494;6.976;2023-04-22T11:13:37;4.85;;;4.45;;
22894;SDS011;11614;52.494;6.976;2023-04-22T11:16:06;5.05;;;4.53;;
22894;SDS011;11614;52.494;6.976;2023-04-22T11:18:33;7.90;;;5.75;;
22894;SDS011;11614;52.494;6.976;2023-04-22T11:21:02;6.60;;;5.60;;
22894;SDS011;11614;52.494;6.976;2023-04-22T11:23:30;5.82;;;5.00;;
22894;SDS011;11614;52.494;6.976;2023-04-22T11:26:00;4.68;;;4.25;;
22894;SDS011;11614;52.494;6.976;2023-04-22T11:28:26;6.47;;;5.85;;
22894;SDS011;11614;52.494;6.976;2023-04-22T11:30:52;4.90;;;3.83;;
22894;SDS011;11614;52.494;6.976;2023-04-22T11:33:25;5.32;;;4.60;;
22894;SDS011;11614;52.494;6.976;2023-04-22T11:35:51;5.28;;;3.53;;
22894;SDS011;11614;52.494;6.976;2023-04-22T11:38:17;4.95;;;3.95;;
22894;SDS011;11614;52.494;6.976;2023-04-22T11:40:43;7.82;;;5.50;;
22894;SDS011;11614;52.494;6.976;2023-04-22T11:43:10;7.25;;;5.75;;
22894;SDS011;11614;52.494;6.976;2023-04-22T11:45:36;9.27;;;6.95;;
22894;SDS011;11614;52.494;6.976;2023-04-22T11:48:03;6.47;;;5.57;;
22894;SDS011;11614;52.494;6.976;2023-04-22T11:50:33;6.80;;;5.25;;
22894;SDS011;11614;52.494;6.976;2023-04-22T11:53:03;6.57;;;6.05;;
22894;SDS011;11614;52.494;6.976;2023-04-22T11:57:59;7.85;;;6.82;;
22894;SDS011;11614;52.494;6.976;2023-04-22T12:00:29;6.60;;;5.63;;
22894;SDS011;11614;52.494;6.976;2023-04-22T12:02:58;6.05;;;5.55;;
22894;SDS011;11614;52.494;6.976;2023-04-22T12:05:37;7.53;;;6.32;;
22894;SDS011;11614;52.494;6.976;2023-04-22T12:08:07;6.68;;;6.05;;
22894;SDS011;11614;52.494;6.976;2023-04-22T12:10:37;7.20;;;6.40;;
22894;SDS011;11614;52.494;6.976;2023-04-22T12:13:04;7.78;;;6.53;;
22894;SDS011;11614;52.494;6.976;2023-04-22T12:15:37;7.35;;;6.68;;
22894;SDS011;11614;52.494;6.976;2023-04-22T12:18:03;4.97;;;4.47;;
22894;SDS011;11614;52.494;6.976;2023-04-22T12:20:33;6.65;;;5.78;;
22894;SDS011;11614;52.494;6.976;2023-04-22T12:22:59;7.65;;;4.90;;
22894;SDS011;11614;52.494;6.976;2023-04-22T12:25:25;6.28;;;4.78;;
22894;SDS011;11614;52.494;6.976;2023-04-22T12:27:51;6.05;;;5.40;;
22894;SDS011;11614;52.494;6.976;2023-04-22T12:30:17;4.78;;;4.20;;
22894;SDS011;11614;52.494;6.976;2023-04-22T12:32:44;4.57;;;3.22;;
22894;SDS011;11614;52.494;6.976;2023-04-22T12:35:10;6.00;;;4.18;;
22894;SDS011;11614;52.494;6.976;2023-04-22T12:37:36;4.68;;;4.18;;
22894;SDS011;11614;52.494;6.976;2023-04-22T12:40:02;3.25;;;2.90;;
22894;SDS011;11614;52.494;6.976;2023-04-22T12:42:28;4.38;;;3.90;;
22894;SDS011;11614;52.494;6.976;2023-04-22T12:44:54;4.00;;;3.60;;
22894;SDS011;11614;52.494;6.976;2023-04-22T12:47:20;5.53;;;2.92;;
22894;SDS011;11614;52.494;6.976;2023-04-22T12:49:46;4.13;;;2.90;;
22894;SDS011;11614;52.494;6.976;2023-04-22T12:52:13;3.85;;;3.40;;
22894;SDS011;11614;52.494;6.976;2023-04-22T12:54:39;5.50;;;3.97;;
22894;SDS011;11614;52.494;6.976;2023-04-22T12:57:05;6.40;;;4.07;;
22894;SDS011;11614;52.494;6.976;2023-04-22T12:59:31;3.83;;;3.42;;
22894;SDS011;11614;52.494;6.976;2023-04-22T13:01:57;3.75;;;2.80;;
22894;SDS011;11614;52.494;6.976;2023-04-22T13:04:23;4.18;;;3.78;;
22894;SDS011;11614;52.494;6.976;2023-04-22T13:06:49;4.13;;;3.72;;
22894;SDS011;11614;52.494;6.976;2023-04-22T13:09:20;5.45;;;3.85;;
22894;SDS011;11614;52.494;6.976;2023-04-22T13:11:46;2.97;;;2.50;;
22894;SDS011;11614;52.494;6.976;2023-04-22T13:14:13;3.97;;;2.50;;
22894;SDS011;11614;52.494;6.976;2023-04-22T13:16:39;3.97;;;2.97;;
22894;SDS011;11614;52.494;6.976;2023-04-22T13:19:05;5.03;;;3.40;;
22894;SDS011;11614;52.494;6.976;2023-04-22T13:21:31;4.07;;;2.75;;
22894;SDS011;11614;52.494;6.976;2023-04-22T13:23:57;5.03;;;3.25;;
22894;SDS011;11614;52.494;6.976;2023-04-22T13:26:23;3.63;;;3.22;;
22894;SDS011;11614;52.494;6.976;2023-04-22T13:28:49;3.67;;;2.67;;
22894;SDS011;11614;52.494;6.976;2023-04-22T13:31:15;3.47;;;2.92;;
22894;SDS011;11614;52.494;6.976;2023-04-22T13:33:41;3.47;;;2.97;;
22894;SDS011;11614;52.494;6.976;2023-04-22T13:36:08;4.82;;;2.83;;
22894;SDS011;11614;52.494;6.976;2023-04-22T13:38:34;4.47;;;3.03;;
22894;SDS011;11614;52.494;6.976;2023-04-22T13:41:00;4.35;;;3.35;;
22894;SDS011;11614;52.494;6.976;2023-04-22T13:43:26;2.42;;;2.15;;
22894;SDS011;11614;52.494;6.976;2023-04-22T13:45:52;2.72;;;1.98;;
22894;SDS011;11614;52.494;6.976;2023-04-22T13:48:18;3.47;;;2.20;;
22894;SDS011;11614;52.494;6.976;2023-04-22T13:50:44;5.50;;;2.70;;
22894;SDS011;11614;52.494;6.976;2023-04-22T13:53:10;4.13;;;3.22;;
22894;SDS011;11614;52.494;6.976;2023-04-22T13:55:37;3.85;;;2.53;;
22894;SDS011;11614;52.494;6.976;2023-04-22T13:58:03;4.72;;;3.10;;
22894;SDS011;11614;52.494;6.976;2023-04-22T14:00:30;3.40;;;3.10;;
22894;SDS011;11614;52.494;6.976;2023-04-22T14:02:56;4.95;;;3.85;;
22894;SDS011;11614;52.494;6.976;2023-04-22T14:05:22;8.48;;;4.63;;
22894;SDS011;11614;52.494;6.976;2023-04-22T14:07:48;4.45;;;3.53;;
22894;SDS011;11614;52.494;6.976;2023-04-22T14:10:14;5.22;;;4.15;;
22894;SDS011;11614;52.494;6.976;2023-04-22T14:12:44;4.88;;;3.65;;
22894;SDS011;11614;52.494;6.976;2023-04-22T14:15:10;10.48;;;4.82;;
22894;SDS011;11614;52.494;6.976;2023-04-22T14:17:36;4.95;;;4.20;;
22894;SDS011;11614;52.494;6.976;2023-04-22T14:20:02;5.45;;;4.45;;
22894;SDS011;11614;52.494;6.976;2023-04-22T14:22:29;5.25;;;4.40;;
22894;SDS011;11614;52.494;6.976;2023-04-22T14:24:55;5.20;;;4.07;;
22894;SDS011;11614;52.494;6.976;2023-04-22T14:27:21;8.10;;;4.57;;
22894;SDS011;11614;52.494;6.976;2023-04-22T14:29:47;5.10;;;4.60;;
22894;SDS011;11614;52.494;6.976;2023-04-22T14:32:16;4.30;;;3.90;;
22894;SDS011;11614;52.494;6.976;2023-04-22T14:34:42;7.07;;;4.50;;
22894;SDS011;11614;52.494;6.976;2023-04-22T14:37:09;6.22;;;4.88;;
22894;SDS011;11614;52.494;6.976;2023-04-22T14:39:35;5.57;;;4.97;;
22894;SDS011;11614;52.494;6.976;2023-04-22T14:42:01;4.20;;;3.75;;
22894;SDS011;11614;52.494;6.976;2023-04-22T14:44:27;6.55;;;4.72;;
22894;SDS011;11614;52.494;6.976;2023-04-22T14:46:53;4.60;;;3.63;;